メインページ
METAR-TAF:

METAR-TAF

空港 :

サンティアゴ, チリ

アルトゥーロ・メリノ・ベニテス国際空港

緯度: 33-23S, 経度: 070-47W, 海抜: 475m

現時点の気象観測

当レポートは17分前の02:00(UTC)に作成
南/南東の風 8kt
気温 16°C
湿度 59%
気圧 1015 hPa
視程10km以上
1,500メートル以下は雲なし、積乱雲なし

METAR: SCEL 010200Z 16008KT CAVOK 16/08 Q1015 NOSIG

時間: 23:17 (02:17 UTC)

予報

当レポートは4時間6分前の22:11(UTC)に作成
予報は01日の 00時(UTC)から 01日の 24時(UTC)まで有効
南東の風 4kt
視程10km以上
1,500メートル以下は雲なし、積乱雲なし
01日の 04時(UTC)から 01日の 06時(UTC)まで徐々に
視程: 7000m
01日の 08時(UTC)から 01日の 14時(UTC)まで一時的に
視程: 5000m
高度300ftの雲はほとんどない
煙霧
01日の 16時(UTC)から 01日の 18時(UTC)まで徐々に
の風 4kt
01日の 18時(UTC)から 01日の 20時(UTC)まで徐々に
の風 8kt

TAF: SCEL 302211Z 0100/0124 14004KT CAVOK TX26/0118Z TN06/0111Z BECMG 0104/0106 7000 NSC TEMPO 0108/0114 5000 HZ FEW003 BECMG 0116/0118 18004KT BECMG 0118/0120 18008KT

4,000以上の空港の気象観測と天気予報(METAR報とTAF報)

利用可能な観測所は地図上に黄色い丸と赤い丸で示す。

丸の上にカーソルを重ねると観測所名を参照できる。

次にクリックすると気象観測と天気予報を参照できる。

マップの切り替え:黒色「×」印の緑ボタンをクリックして拡大、「-」印の緑ボタンをクリックして縮小、緑色の三角印をクリックして隣りの地図に切り替え


METAR-TAF: